Orbital elements of UNISAT-3
| Launched | 28 June 2004 |
| Flight ended | – |
| Launch site | Tyuratam Missile and Space Center, Kazakhstan (Also known as Baikonur Cosmodrome) |
| Owner | Italy |
| NORAD ID | 28373 |
| Date fetched |
Epoch osculation |
Inc. [°] |
Ecc. | RA asc node [hr] |
Arg Peri. [°] |
Mean anom [°] |
Mean motion [rev/day] |
Abs. mag |
| Date fetched |
Epoch osculation |
Inc. [°] |
Ecc. | RA asc node [hr] |
Arg Peri. [°] |
Mean anom [°] |
Mean motion [rev/day] |
Abs. mag |
| 2026 May 08 17:57 | 2026 May 05 11:34:10 | 98.6951 | 0.00663 | 8.9363 | 120.8186 | 239.9557 | 14.49033 | 8.743 |
| 2026 May 07 17:58 | 2026 May 05 11:34:10 | 98.6951 | 0.00663 | 8.9363 | 120.8186 | 239.9557 | 14.49033 | 8.743 |
| 2026 May 06 17:57 | 2026 May 05 11:34:10 | 98.6951 | 0.00663 | 8.9363 | 120.8186 | 239.9557 | 14.49033 | 8.743 |
| 2026 May 05 17:57 | 2026 May 05 11:34:10 | 98.6951 | 0.00663 | 8.9363 | 120.8186 | 239.9557 | 14.49033 | 8.743 |
| 2026 May 04 17:57 | 2026 Apr 30 12:14:52 | 98.6952 | 0.00661 | 8.5948 | 135.6431 | 239.9557 | 14.49033 | 8.743 |
| 2026 May 03 17:57 | 2026 Apr 30 12:14:52 | 98.6952 | 0.00661 | 8.5948 | 135.6431 | 239.9557 | 14.49033 | 8.743 |
| 2026 May 02 17:57 | 2026 Apr 30 12:14:52 | 98.6952 | 0.00661 | 8.5948 | 135.6431 | 239.9557 | 14.49033 | 8.743 |
| 2026 May 01 17:56 | 2026 Apr 30 12:14:52 | 98.6952 | 0.00661 | 8.5948 | 135.6431 | 239.9557 | 14.49033 | 8.743 |
| 2026 Apr 30 17:56 | 2026 Apr 30 12:14:52 | 98.6952 | 0.00661 | 8.5948 | 135.6431 | 239.9557 | 14.49033 | 8.743 |
| 2026 Apr 29 17:57 | 2026 Apr 24 10:24:33 | 98.6958 | 0.00658 | 8.1774 | 153.8103 | 239.9557 | 14.49033 | 8.743 |
| 2026 Apr 28 17:56 | 2026 Apr 24 10:24:33 | 98.6958 | 0.00658 | 8.1774 | 153.8103 | 239.9557 | 14.49033 | 8.743 |
| 2026 Apr 27 17:58 | 2026 Apr 24 10:24:33 | 98.6958 | 0.00658 | 8.1774 | 153.8103 | 239.9557 | 14.49033 | 8.743 |
| 2026 Apr 26 17:58 | 2026 Apr 24 10:24:33 | 98.6958 | 0.00658 | 8.1774 | 153.8103 | 239.9557 | 14.49033 | 8.743 |
| 2026 Apr 25 17:58 | 2026 Apr 24 10:24:33 | 98.6958 | 0.00658 | 8.1774 | 153.8103 | 239.9557 | 14.49033 | 8.743 |
| 2026 Apr 24 17:59 | 2026 Apr 24 10:24:33 | 98.6958 | 0.00658 | 8.1774 | 153.8103 | 239.9557 | 14.49033 | 8.743 |
| 2026 Apr 23 17:57 | 2026 Apr 19 06:06:52 | 98.6963 | 0.00655 | 7.8216 | 169.3608 | 239.9557 | 14.49033 | 8.743 |
| 2026 Apr 22 17:57 | 2026 Apr 19 06:06:52 | 98.6963 | 0.00655 | 7.8216 | 169.3608 | 239.9557 | 14.49033 | 8.743 |
| 2026 Apr 21 17:57 | 2026 Apr 19 06:06:52 | 98.6963 | 0.00655 | 7.8216 | 169.3608 | 239.9557 | 14.49033 | 8.743 |
| 2026 Apr 20 17:57 | 2026 Apr 19 06:06:52 | 98.6963 | 0.00655 | 7.8216 | 169.3608 | 239.9557 | 14.49033 | 8.743 |
| 2026 Apr 19 17:58 | 2026 Apr 19 06:06:52 | 98.6963 | 0.00655 | 7.8216 | 169.3608 | 239.9557 | 14.49033 | 8.743 |
| 2026 Apr 18 17:56 | 2026 Apr 12 23:18:11 | 98.6963 | 0.00651 | 7.3900 | 188.3302 | 239.9557 | 14.49033 | 8.743 |
| 2026 Apr 16 17:57 | 2026 Apr 12 23:18:11 | 98.6963 | 0.00651 | 7.3900 | 188.3302 | 239.9557 | 14.49033 | 8.743 |
| 2026 Apr 14 17:57 | 2026 Apr 12 23:18:11 | 98.6963 | 0.00651 | 7.3900 | 188.3302 | 239.9557 | 14.49033 | 8.743 |
| 2026 Apr 13 17:57 | 2026 Apr 12 23:18:11 | 98.6963 | 0.00651 | 7.3900 | 188.3302 | 239.9557 | 14.49033 | 8.743 |
| 2026 Apr 12 17:57 | 2026 Apr 08 13:14:15 | 98.6966 | 0.00648 | 7.0864 | 201.7291 | 239.9557 | 14.49033 | 8.743 |
| 2026 Apr 11 17:57 | 2026 Apr 08 13:14:15 | 98.6966 | 0.00648 | 7.0864 | 201.7291 | 239.9557 | 14.49033 | 8.743 |